createdAt,value
2018-05-25T00:01:47.946Z,37.60
2018-05-25T00:04:15.526Z,37.60
2018-05-25T00:06:43.009Z,37.50
2018-05-25T00:09:10.561Z,37.60
2018-05-25T00:11:38.034Z,37.60
2018-05-25T00:14:05.611Z,37.50
2018-05-25T00:16:33.176Z,37.60
2018-05-25T00:19:00.672Z,37.60
2018-05-25T00:21:28.153Z,37.60
2018-05-25T00:23:55.624Z,37.60
2018-05-25T00:26:24.697Z,37.70
2018-05-25T00:28:52.173Z,37.70
2018-05-25T00:31:19.728Z,37.70
2018-05-25T00:33:47.305Z,37.70
2018-05-25T00:36:14.872Z,37.70
2018-05-25T00:38:42.609Z,37.70
2018-05-25T00:41:10.850Z,37.80
2018-05-25T00:43:38.328Z,37.70
2018-05-25T00:46:05.897Z,37.80
2018-05-25T00:48:33.378Z,37.80
2018-05-25T00:51:00.920Z,37.70
2018-05-25T00:53:28.497Z,37.70
2018-05-25T00:55:56.105Z,37.80
2018-05-25T00:58:23.597Z,37.70
2018-05-25T01:00:52.177Z,37.80
2018-05-25T01:03:20.424Z,37.80
2018-05-25T01:05:48.005Z,37.80
2018-05-25T01:08:15.573Z,37.70
2018-05-25T01:10:43.049Z,37.80
2018-05-25T01:13:10.541Z,37.80
2018-05-25T01:15:38.084Z,37.80
2018-05-25T01:18:05.681Z,37.80
2018-05-25T01:20:33.243Z,37.80
2018-05-25T01:23:00.887Z,37.80
2018-05-25T01:25:28.371Z,37.80
2018-05-25T01:27:55.947Z,37.70
2018-05-25T01:30:23.413Z,37.70
2018-05-25T01:32:50.981Z,37.70
2018-05-25T01:35:18.460Z,37.70
2018-05-25T01:37:46.030Z,37.70
2018-05-25T01:40:13.506Z,37.70
2018-05-25T01:42:41.074Z,37.70
2018-05-25T01:45:08.625Z,37.70
2018-05-25T01:47:36.124Z,37.80
2018-05-25T01:50:03.685Z,37.80
2018-05-25T01:52:31.148Z,37.80
2018-05-25T01:54:58.734Z,37.70
2018-05-25T01:57:26.201Z,37.70
2018-05-25T01:59:53.764Z,37.70
2018-05-25T02:02:21.342Z,37.70
2018-05-25T02:04:48.820Z,37.70
2018-05-25T02:07:16.385Z,37.60
2018-05-25T02:09:43.958Z,37.60
2018-05-25T02:12:11.441Z,37.60
2018-05-25T02:14:38.937Z,37.60
2018-05-25T02:17:06.457Z,37.70
2018-05-25T02:19:33.956Z,37.70
2018-05-25T02:22:01.437Z,37.60
2018-05-25T02:24:28.928Z,37.60
2018-05-25T02:26:56.452Z,37.60
2018-05-25T02:29:24.013Z,37.60
2018-05-25T02:31:51.508Z,37.60
2018-05-25T02:34:19.170Z,37.60
2018-05-25T02:36:46.645Z,37.60
2018-05-25T02:39:14.218Z,37.60
2018-05-25T02:41:41.688Z,37.60
2018-05-25T02:44:09.160Z,37.60
2018-05-25T02:46:36.648Z,37.60
2018-05-25T02:49:04.157Z,37.70
2018-05-25T02:51:32.403Z,37.60
2018-05-25T02:53:59.958Z,37.60
2018-05-25T02:56:27.429Z,37.60
2018-05-25T02:58:55.002Z,37.60
2018-05-25T03:01:22.565Z,37.60
2018-05-25T03:03:50.054Z,37.60
2018-05-25T03:06:17.617Z,37.60
2018-05-25T03:08:45.091Z,37.60
2018-05-25T03:11:12.578Z,37.60
2018-05-25T03:13:40.120Z,37.50
2018-05-25T03:16:07.697Z,37.50
2018-05-25T03:18:35.179Z,37.50
2018-05-25T03:21:02.661Z,37.50
2018-05-25T03:23:30.939Z,37.50
2018-05-25T03:25:58.512Z,37.50
2018-05-25T03:28:26.079Z,37.50
2018-05-25T03:30:53.549Z,37.50
2018-05-25T03:33:21.092Z,37.50
2018-05-25T03:35:49.320Z,37.50
2018-05-25T03:38:16.886Z,37.50
2018-05-25T03:40:44.447Z,37.50
2018-05-25T03:43:11.938Z,37.50
2018-05-25T03:45:39.427Z,37.50
2018-05-25T03:48:06.971Z,37.50
2018-05-25T03:50:34.547Z,37.50
2018-05-25T03:53:02.040Z,37.50
2018-05-25T03:55:30.269Z,37.50
2018-05-25T03:57:57.747Z,37.50
2018-05-25T04:00:37.321Z,37.50
2018-05-25T04:03:04.813Z,37.50
2018-05-25T04:05:33.073Z,37.50
2018-05-25T04:08:00.537Z,37.50
2018-05-25T04:10:28.932Z,37.50
2018-05-25T04:12:56.430Z,37.40
2018-05-25T04:15:23.968Z,37.50
2018-05-25T04:17:51.464Z,37.50
2018-05-25T04:20:19.037Z,37.50
2018-05-25T04:22:46.520Z,37.50
2018-05-25T04:25:13.996Z,37.50
2018-05-25T04:27:41.476Z,37.40
2018-05-25T04:30:08.980Z,37.50
2018-05-25T04:32:36.465Z,37.50
2018-05-25T04:35:03.970Z,37.50
2018-05-25T04:37:32.958Z,37.50
2018-05-25T04:40:00.528Z,37.40
2018-05-25T04:42:28.009Z,37.50
2018-05-25T04:44:55.496Z,37.50
2018-05-25T04:47:23.049Z,37.40
2018-05-25T04:49:50.542Z,37.50
2018-05-25T04:52:18.032Z,37.50
2018-05-25T04:54:46.256Z,37.50
2018-05-25T04:57:13.877Z,37.40
2018-05-25T04:59:41.426Z,37.40
2018-05-25T05:02:08.916Z,38.00
2018-05-25T05:04:36.477Z,37.40
2018-05-25T05:07:04.131Z,37.40
2018-05-25T05:09:31.626Z,37.30
2018-05-25T05:11:59.160Z,37.40
2018-05-25T05:14:26.735Z,37.80
2018-05-25T05:16:54.334Z,37.30
2018-05-25T05:19:21.888Z,37.30
2018-05-25T05:21:49.465Z,37.30
2018-05-25T05:24:17.033Z,37.30
2018-05-25T05:26:44.497Z,37.30
2018-05-25T05:29:11.974Z,37.30
2018-05-25T05:31:39.637Z,37.30
2018-05-25T05:34:07.194Z,37.30
2018-05-25T05:36:34.669Z,37.30
2018-05-25T05:39:02.260Z,37.30
2018-05-25T05:41:29.758Z,37.30
2018-05-25T05:43:57.282Z,37.30
2018-05-25T05:46:24.765Z,37.30
2018-05-25T05:48:52.247Z,37.30
2018-05-25T05:51:19.801Z,37.30
2018-05-25T05:53:47.276Z,37.30
2018-05-25T05:56:14.853Z,37.30
2018-05-25T05:58:42.337Z,37.30
2018-05-25T06:01:09.905Z,37.30
2018-05-25T06:03:37.469Z,37.30
2018-05-25T06:06:05.037Z,37.30
2018-05-25T06:08:32.610Z,37.30
2018-05-25T06:11:00.108Z,37.30
2018-05-25T06:13:27.602Z,37.30
2018-05-25T06:15:55.871Z,37.40
2018-05-25T06:18:23.333Z,37.30
2018-05-25T06:20:50.804Z,38.00
2018-05-25T06:23:18.279Z,37.30
2018-05-25T06:25:45.825Z,37.30
2018-05-25T06:28:13.401Z,37.30
2018-05-25T06:30:40.913Z,37.40
2018-05-25T06:33:08.405Z,37.40
2018-05-25T06:35:36.749Z,37.40
2018-05-25T06:38:04.222Z,37.30
2018-05-25T06:40:31.768Z,37.40
2018-05-25T06:42:59.236Z,37.30
2018-05-25T06:45:26.725Z,37.30
2018-05-25T06:47:54.268Z,37.30
2018-05-25T06:50:21.864Z,37.30
2018-05-25T06:52:49.341Z,37.30
2018-05-25T06:55:16.815Z,37.30
2018-05-25T06:57:44.379Z,37.30
2018-05-25T07:00:11.934Z,37.30
2018-05-25T07:02:39.469Z,37.30
2018-05-25T07:05:07.877Z,37.40
2018-05-25T07:07:36.130Z,37.40
2018-05-25T07:10:03.765Z,37.30
2018-05-25T07:12:31.261Z,37.30
2018-05-25T07:14:58.733Z,37.30
2018-05-25T07:17:26.216Z,37.30
2018-05-25T07:19:53.696Z,37.30
2018-05-25T07:22:21.946Z,37.30
2018-05-25T07:24:49.480Z,37.20
2018-05-25T07:27:17.037Z,37.20
2018-05-25T07:29:45.277Z,37.20
2018-05-25T07:32:12.845Z,37.20
2018-05-25T07:34:40.389Z,37.20
2018-05-25T07:37:07.889Z,37.30
2018-05-25T07:39:35.377Z,37.20
2018-05-25T07:42:02.885Z,37.20
2018-05-25T07:44:31.225Z,37.20
2018-05-25T07:46:58.700Z,37.10
2018-05-25T07:49:26.177Z,37.10
2018-05-25T07:51:53.660Z,37.20
2018-05-25T07:54:21.224Z,37.10
2018-05-25T07:56:48.781Z,37.20
2018-05-25T07:59:16.274Z,37.20
2018-05-25T08:01:43.749Z,37.20
2018-05-25T08:04:11.466Z,37.20
2018-05-25T08:06:38.949Z,37.30
2018-05-25T08:09:07.228Z,37.30
2018-05-25T08:11:34.819Z,37.30
2018-05-25T08:14:02.290Z,37.30
2018-05-25T08:16:29.957Z,38.00
2018-05-25T08:18:57.529Z,37.30
2018-05-25T08:21:25.005Z,37.30
2018-05-25T08:23:52.564Z,37.40
2018-05-25T08:26:20.137Z,37.40
2018-05-25T08:28:47.628Z,37.40
2018-05-25T08:31:15.112Z,37.40
2018-05-25T08:33:42.597Z,37.40
2018-05-25T08:36:10.106Z,37.40
2018-05-25T08:38:37.746Z,37.40
2018-05-25T08:41:06.007Z,37.40
2018-05-25T08:43:33.500Z,37.40
2018-05-25T08:46:01.026Z,37.40
2018-05-25T08:48:28.608Z,37.40
2018-05-25T08:50:56.170Z,37.40
2018-05-25T08:53:23.757Z,37.40
2018-05-25T08:55:51.256Z,37.40
2018-05-25T08:58:18.737Z,37.40
2018-05-25T09:00:46.994Z,37.40
2018-05-25T09:03:14.547Z,37.40
2018-05-25T09:05:42.121Z,37.40
2018-05-25T09:08:09.713Z,37.40
2018-05-25T09:10:37.271Z,37.40
2018-05-25T09:13:04.811Z,37.40
2018-05-25T09:15:32.292Z,37.40
2018-05-25T09:17:59.868Z,37.40
2018-05-25T09:20:27.373Z,37.40
2018-05-25T09:22:54.927Z,37.40
2018-05-25T09:25:22.392Z,38.10
2018-05-25T09:27:49.956Z,37.40
2018-05-25T09:30:17.531Z,37.40
2018-05-25T09:32:45.000Z,37.50
2018-05-25T09:35:12.499Z,37.50
2018-05-25T09:37:40.059Z,37.50
2018-05-25T09:40:07.711Z,38.10
2018-05-25T09:42:35.221Z,37.50
2018-05-25T09:45:02.690Z,37.50
2018-05-25T09:47:30.228Z,37.50
2018-05-25T09:49:57.697Z,38.10
2018-05-25T09:52:25.276Z,37.40
2018-05-25T09:54:52.771Z,37.40
2018-05-25T09:57:20.301Z,37.40
2018-05-25T09:59:47.868Z,37.30
2018-05-25T10:02:16.093Z,37.30
2018-05-25T10:04:43.645Z,37.20
2018-05-25T10:07:11.121Z,37.20
2018-05-25T10:09:38.618Z,37.30
2018-05-25T10:12:06.169Z,37.30
2018-05-25T10:14:33.666Z,37.20
2018-05-25T10:17:01.149Z,37.20
2018-05-25T10:19:29.500Z,37.20
2018-05-25T10:21:56.986Z,37.10
2018-05-25T10:24:24.473Z,37.20
2018-05-25T10:26:52.000Z,37.20
2018-05-25T10:29:19.481Z,37.10
2018-05-25T10:31:47.046Z,37.10
2018-05-25T10:34:14.624Z,37.10
2018-05-25T10:36:42.109Z,37.00
2018-05-25T10:39:09.672Z,37.10
2018-05-25T10:41:37.229Z,37.10
2018-05-25T10:44:04.730Z,37.00
2018-05-25T10:46:32.202Z,37.00
2018-05-25T10:48:59.733Z,37.00
2018-05-25T10:51:27.210Z,37.00
2018-05-25T10:53:54.784Z,37.00
2018-05-25T10:56:22.405Z,37.00
2018-05-25T10:58:49.996Z,36.90
2018-05-25T11:01:17.496Z,36.90
2018-05-25T11:03:45.094Z,36.90
2018-05-25T11:06:12.700Z,36.90
2018-05-25T11:08:40.972Z,36.90
2018-05-25T11:11:08.520Z,36.80
2018-05-25T11:13:36.139Z,36.90
2018-05-25T11:16:04.396Z,37.00
2018-05-25T11:18:31.898Z,36.90
2018-05-25T11:21:00.302Z,37.00
2018-05-25T11:23:27.792Z,36.90
2018-05-25T11:25:55.357Z,36.90
2018-05-25T11:28:22.927Z,36.90
2018-05-25T11:30:51.238Z,36.90
2018-05-25T11:33:18.712Z,36.90
2018-05-25T11:35:46.195Z,36.90
2018-05-25T11:38:13.811Z,36.90
2018-05-25T11:40:42.058Z,36.90
2018-05-25T11:43:09.613Z,36.80
2018-05-25T11:45:37.105Z,36.90
2018-05-25T11:48:04.632Z,36.80
2018-05-25T11:50:32.955Z,36.80
2018-05-25T11:53:00.465Z,36.80
2018-05-25T11:55:27.925Z,36.90
2018-05-25T11:57:55.389Z,36.80
2018-05-25T12:00:22.877Z,36.80
2018-05-25T12:02:50.388Z,37.40
2018-05-25T12:05:17.868Z,37.20
2018-05-25T12:07:45.349Z,37.10
2018-05-25T12:10:12.919Z,37.60
2018-05-25T12:12:40.396Z,37.90
2018-05-25T12:15:07.878Z,38.50
2018-05-25T12:17:35.427Z,38.70
2018-05-25T12:20:03.015Z,38.50
2018-05-25T12:22:30.512Z,38.80
2018-05-25T12:24:58.856Z,38.90
2018-05-25T12:27:26.421Z,38.90
2018-05-25T12:29:53.897Z,38.50
2018-05-25T12:32:21.381Z,38.80
2018-05-25T12:34:48.891Z,39.60
2018-05-25T12:37:16.390Z,39.80
2018-05-25T12:39:43.976Z,38.80
2018-05-25T12:42:11.575Z,38.50
2018-05-25T12:44:50.896Z,38.00
2018-05-25T12:47:18.452Z,38.10
2018-05-25T12:49:46.756Z,37.80
2018-05-25T12:52:14.329Z,37.80
2018-05-25T12:54:41.930Z,37.80
2018-05-25T12:57:09.427Z,37.80
2018-05-25T12:59:37.802Z,38.30
2018-05-25T13:02:05.383Z,37.60
2018-05-25T13:04:32.888Z,37.50
2018-05-25T13:07:01.148Z,37.30
2018-05-25T13:09:28.873Z,37.20
2018-05-25T13:11:56.381Z,37.10
2018-05-25T13:14:24.619Z,37.20
2018-05-25T13:16:52.094Z,37.20
2018-05-25T13:19:19.672Z,37.60
2018-05-25T13:21:47.209Z,37.20
2018-05-25T13:24:14.716Z,37.00
2018-05-25T13:26:42.289Z,37.30
2018-05-25T13:29:09.793Z,37.10
2018-05-25T13:31:37.256Z,37.10
2018-05-25T13:34:04.774Z,36.90
2018-05-25T13:36:33.073Z,36.90
2018-05-25T13:39:00.592Z,36.90
2018-05-25T13:41:28.064Z,37.00
2018-05-25T13:43:55.592Z,36.80
2018-05-25T13:46:23.173Z,36.50
2018-05-25T13:48:50.666Z,37.20
2018-05-25T13:51:18.255Z,36.90
2018-05-25T13:53:45.747Z,36.40
2018-05-25T13:56:14.105Z,36.40
2018-05-25T14:01:17.504Z,36.10
2018-05-25T14:03:45.125Z,36.00
2018-05-25T14:06:14.090Z,36.20
2018-05-25T14:08:41.664Z,36.10
2018-05-25T14:11:09.424Z,36.00
2018-05-25T14:13:37.777Z,35.80
2018-05-25T14:16:06.332Z,35.80
2018-05-25T14:18:33.941Z,35.70
2018-05-25T14:21:01.482Z,35.80
2018-05-25T14:23:29.058Z,35.50
2018-05-25T14:25:56.539Z,35.00
2018-05-25T14:28:24.029Z,35.50
2018-05-25T14:30:52.400Z,35.50
2018-05-25T14:33:19.945Z,35.60
2018-05-25T14:35:47.456Z,35.40
2018-05-25T14:38:14.959Z,35.10
2018-05-25T14:40:43.201Z,34.90
2018-05-25T14:43:10.763Z,34.90
2018-05-25T14:45:38.509Z,35.20
2018-05-25T14:48:05.998Z,35.20
2018-05-25T14:50:33.569Z,35.10
2018-05-25T14:53:01.244Z,34.80
2018-05-25T14:55:28.814Z,35.00
2018-05-25T14:57:56.397Z,34.90
2018-05-25T15:00:23.942Z,34.90
2018-05-25T15:02:51.456Z,34.80
2018-05-25T15:05:19.033Z,34.80
2018-05-25T15:07:46.557Z,34.30
2018-05-25T15:10:14.257Z,34.70
2018-05-25T15:12:41.836Z,34.40
2018-05-25T15:15:09.419Z,34.40
2018-05-25T15:17:36.980Z,34.60
2018-05-25T15:20:04.462Z,34.70
2018-05-25T15:22:31.936Z,34.80
2018-05-25T15:24:59.412Z,34.50
2018-05-25T15:27:26.915Z,35.00
2018-05-25T15:29:54.417Z,34.20
2018-05-25T15:32:21.889Z,34.20
2018-05-25T15:34:49.461Z,34.00
2018-05-25T15:37:16.965Z,34.40
2018-05-25T15:39:44.483Z,34.50
2018-05-25T15:42:12.029Z,34.60
2018-05-25T15:44:40.284Z,34.80
2018-05-25T15:47:07.806Z,34.70
2018-05-25T15:49:35.290Z,34.70
2018-05-25T15:52:02.769Z,34.80
2018-05-25T15:54:30.349Z,34.90
2018-05-25T15:56:57.860Z,35.00
2018-05-25T15:59:25.391Z,34.90
2018-05-25T16:01:52.861Z,34.80
2018-05-25T16:04:20.350Z,34.90
2018-05-25T16:06:47.822Z,35.00
2018-05-25T16:09:15.370Z,35.00
2018-05-25T16:11:43.002Z,35.00
2018-05-25T16:14:11.388Z,35.20
2018-05-25T16:16:38.837Z,35.10
2018-05-25T16:19:06.412Z,35.10
2018-05-25T16:21:33.889Z,35.10
2018-05-25T16:24:02.952Z,35.10
2018-05-25T16:26:30.524Z,35.10
2018-05-25T16:28:58.069Z,35.10
2018-05-25T16:31:25.497Z,35.10
2018-05-25T16:33:52.989Z,35.10
2018-05-25T16:36:21.346Z,35.10
2018-05-25T16:38:48.890Z,35.10
2018-05-25T16:41:17.111Z,35.10
2018-05-25T16:43:44.600Z,35.10
2018-05-25T16:46:12.156Z,35.10
2018-05-25T16:48:39.710Z,35.10
2018-05-25T16:51:07.228Z,35.10
2018-05-25T16:53:35.517Z,35.10
2018-05-25T16:56:03.827Z,35.00
2018-05-25T16:58:31.472Z,34.90
2018-05-25T17:00:59.714Z,34.80
2018-05-25T17:03:27.202Z,34.80
2018-05-25T17:05:54.737Z,34.90
2018-05-25T17:08:22.269Z,34.80
2018-05-25T17:10:49.742Z,34.70
2018-05-25T17:13:17.219Z,34.80
2018-05-25T17:15:45.542Z,35.20
2018-05-25T17:18:13.061Z,34.80
2018-05-25T17:20:40.624Z,34.80
2018-05-25T17:23:08.213Z,34.80
2018-05-25T17:25:35.833Z,34.80
2018-05-25T17:28:03.300Z,34.80
2018-05-25T17:30:30.821Z,34.70
2018-05-25T17:32:58.348Z,34.70
2018-05-25T17:35:25.829Z,34.70
2018-05-25T17:37:53.398Z,34.70
2018-05-25T17:40:20.893Z,34.70
2018-05-25T17:42:48.365Z,34.70
2018-05-25T17:45:15.848Z,34.60
2018-05-25T17:47:43.473Z,34.60
2018-05-25T17:50:11.003Z,34.60
2018-05-25T17:52:38.522Z,34.60
2018-05-25T17:55:06.022Z,35.20
2018-05-25T17:57:33.514Z,34.50
2018-05-25T18:00:01.773Z,34.60
2018-05-25T18:02:29.245Z,34.60
2018-05-25T18:04:56.721Z,34.50
2018-05-25T18:07:24.676Z,34.60
2018-05-25T18:09:52.249Z,34.50
2018-05-25T18:12:19.825Z,34.50
2018-05-25T18:14:47.392Z,34.60
2018-05-25T18:17:15.004Z,34.60
2018-05-25T18:19:42.561Z,34.60
2018-05-25T18:22:10.084Z,34.60
2018-05-25T18:24:38.414Z,34.70
2018-05-25T18:27:06.193Z,34.60
2018-05-25T18:29:33.660Z,34.70
2018-05-25T18:32:01.145Z,34.70
2018-05-25T18:34:28.636Z,34.70
2018-05-25T18:36:56.284Z,34.70
2018-05-25T18:39:23.851Z,34.70
2018-05-25T18:41:51.334Z,34.70
2018-05-25T18:44:18.881Z,34.80
2018-05-25T18:46:46.352Z,34.80
2018-05-25T18:49:13.941Z,34.80
2018-05-25T18:51:41.516Z,34.90
2018-05-25T18:54:20.952Z,34.90
2018-05-25T18:56:48.437Z,34.80
2018-05-25T18:59:15.917Z,34.90
2018-05-25T19:01:43.449Z,34.90
2018-05-25T19:04:10.921Z,34.90
2018-05-25T19:06:38.481Z,35.00
2018-05-25T19:09:06.873Z,35.00
2018-05-25T19:11:34.367Z,35.00
2018-05-25T19:14:01.932Z,35.00
2018-05-25T19:16:29.509Z,35.10
2018-05-25T19:18:57.022Z,35.10
2018-05-25T19:21:24.552Z,35.10
2018-05-25T19:23:52.042Z,35.10
2018-05-25T19:26:19.657Z,35.20
2018-05-25T19:28:48.158Z,35.20
2018-05-25T19:31:15.653Z,35.20
2018-05-25T19:33:43.133Z,35.20
2018-05-25T19:36:10.650Z,35.30
2018-05-25T19:38:38.914Z,35.50
2018-05-25T19:41:06.668Z,35.20
2018-05-25T19:43:34.145Z,35.20
2018-05-25T19:46:01.714Z,35.20
2018-05-25T19:48:29.296Z,35.30
2018-05-25T19:50:56.756Z,35.30
2018-05-25T19:53:24.256Z,35.30
2018-05-25T19:55:51.738Z,35.30
2018-05-25T19:58:19.200Z,35.40
2018-05-25T20:00:46.734Z,35.40
2018-05-25T20:03:14.306Z,35.40
2018-05-25T20:05:41.797Z,35.40
2018-05-25T20:08:09.366Z,35.40
2018-05-25T20:10:36.857Z,35.40
2018-05-25T20:13:04.381Z,35.40
2018-05-25T20:15:31.853Z,35.80
2018-05-25T20:17:59.493Z,35.50
2018-05-25T20:20:27.733Z,35.50
2018-05-25T20:22:55.288Z,35.40
2018-05-25T20:25:22.861Z,35.40
2018-05-25T20:27:50.324Z,35.50
2018-05-25T20:30:17.905Z,35.50
2018-05-25T20:32:45.457Z,35.50
2018-05-25T20:35:13.705Z,35.60
2018-05-25T20:37:41.230Z,35.50
2018-05-25T20:40:08.705Z,35.50
2018-05-25T20:42:36.406Z,36.20
2018-05-25T20:45:03.945Z,35.60
2018-05-25T20:47:31.418Z,35.60
2018-05-25T20:49:58.988Z,35.70
2018-05-25T20:52:26.551Z,35.70
2018-05-25T20:54:54.039Z,35.70
2018-05-25T20:57:21.516Z,35.70
2018-05-25T20:59:48.992Z,35.70
2018-05-25T21:02:16.484Z,35.70
2018-05-25T21:04:44.729Z,35.70
2018-05-25T21:07:12.329Z,35.70
2018-05-25T21:09:39.820Z,35.80
2018-05-25T21:12:07.380Z,35.80
2018-05-25T21:14:34.944Z,35.80
2018-05-25T21:17:02.422Z,35.80
2018-05-25T21:19:30.065Z,35.80
2018-05-25T21:21:57.560Z,35.80
2018-05-25T21:24:25.043Z,35.80
2018-05-25T21:26:52.557Z,35.80
2018-05-25T21:29:20.911Z,35.90
2018-05-25T21:31:48.375Z,35.80
2018-05-25T21:34:15.866Z,35.80
2018-05-25T21:36:44.214Z,35.90
2018-05-25T21:39:11.777Z,35.80
2018-05-25T21:41:39.310Z,35.90
2018-05-25T21:44:06.835Z,35.90
2018-05-25T21:46:34.611Z,35.80
2018-05-25T21:49:02.077Z,35.90
2018-05-25T21:51:29.633Z,35.90
2018-05-25T21:53:57.191Z,35.90
2018-05-25T21:56:24.689Z,35.90
2018-05-25T21:58:52.168Z,35.90
2018-05-25T22:01:19.807Z,35.80
2018-05-25T22:03:47.288Z,35.90
2018-05-25T22:06:14.897Z,35.80
2018-05-25T22:08:42.441Z,35.90
2018-05-25T22:11:10.042Z,35.80
2018-05-25T22:13:37.590Z,35.90
2018-05-25T22:16:05.184Z,35.80
2018-05-25T22:18:32.662Z,35.80
2018-05-25T22:21:00.199Z,35.90
2018-05-25T22:23:27.677Z,35.80
2018-05-25T22:25:55.153Z,35.80
2018-05-25T22:28:22.722Z,35.80
2018-05-25T22:30:50.283Z,35.80
2018-05-25T22:33:17.967Z,35.80
2018-05-25T22:35:45.576Z,35.90
2018-05-25T22:38:13.109Z,35.90
2018-05-25T22:40:40.601Z,35.90
2018-05-25T22:43:20.005Z,35.90
2018-05-25T22:45:59.573Z,35.90
2018-05-25T22:48:39.004Z,35.90
2018-05-25T22:51:18.473Z,35.90
2018-05-25T22:53:51.313Z,36.00
2018-05-25T22:56:18.784Z,36.00
2018-05-25T22:58:46.325Z,35.90
2018-05-25T23:01:13.805Z,36.00
2018-05-25T23:03:41.382Z,36.00
2018-05-25T23:06:08.858Z,36.00
2018-05-25T23:08:36.370Z,36.10
2018-05-25T23:11:04.641Z,36.20
2018-05-25T23:13:33.641Z,36.20
2018-05-25T23:16:01.108Z,36.20
2018-05-25T23:18:28.684Z,36.20
2018-05-25T23:20:56.126Z,36.70
2018-05-25T23:23:23.693Z,36.20
2018-05-25T23:25:51.252Z,36.20
2018-05-25T23:28:18.816Z,36.20
2018-05-25T23:30:46.289Z,36.20
2018-05-25T23:33:13.873Z,36.30
2018-05-25T23:35:41.411Z,36.30
2018-05-25T23:38:08.922Z,36.30
2018-05-25T23:40:36.401Z,36.40
2018-05-25T23:43:03.868Z,36.30
2018-05-25T23:45:31.364Z,36.30
2018-05-25T23:47:59.604Z,36.30
2018-05-25T23:50:27.097Z,36.30
2018-05-25T23:52:54.657Z,36.30
2018-05-25T23:55:22.145Z,36.30
2018-05-25T23:57:49.620Z,36.30
